sensor_id;sensor_type;location;lat;lon;timestamp;P1;durP1;ratioP1;P2;durP2;ratioP2
67554;SDS011;54385;53.516;49.456;2023-03-17T00:01:04;2.67;;;0.57;;
67554;SDS011;54385;53.516;49.456;2023-03-17T00:03:32;0.50;;;0.30;;
67554;SDS011;54385;53.516;49.456;2023-03-17T00:06:05;1.88;;;0.65;;
67554;SDS011;54385;53.516;49.456;2023-03-17T00:08:40;1.48;;;0.63;;
67554;SDS011;54385;53.516;49.456;2023-03-17T00:11:11;0.70;;;0.38;;
67554;SDS011;54385;53.516;49.456;2023-03-17T00:13:39;0.52;;;0.30;;
67554;SDS011;54385;53.516;49.456;2023-03-17T00:16:09;0.93;;;0.52;;
67554;SDS011;54385;53.516;49.456;2023-03-17T00:18:42;0.40;;;0.40;;
67554;SDS011;54385;53.516;49.456;2023-03-17T00:21:12;0.90;;;0.30;;
67554;SDS011;54385;53.516;49.456;2023-03-17T00:23:40;2.22;;;0.32;;
67554;SDS011;54385;53.516;49.456;2023-03-17T00:26:10;6.35;;;0.70;;
67554;SDS011;54385;53.516;49.456;2023-03-17T00:28:37;0.52;;;0.50;;
67554;SDS011;54385;53.516;49.456;2023-03-17T00:31:14;0.68;;;0.50;;
67554;SDS011;54385;53.516;49.456;2023-03-17T00:33:42;0.52;;;0.40;;
67554;SDS011;54385;53.516;49.456;2023-03-17T00:36:15;1.63;;;0.32;;
67554;SDS011;54385;53.516;49.456;2023-03-17T00:38:44;1.05;;;0.30;;
67554;SDS011;54385;53.516;49.456;2023-03-17T00:41:11;0.22;;;0.22;;
67554;SDS011;54385;53.516;49.456;2023-03-17T00:43:38;0.50;;;0.35;;
67554;SDS011;54385;53.516;49.456;2023-03-17T00:46:11;1.10;;;0.45;;
67554;SDS011;54385;53.516;49.456;2023-03-17T00:48:40;1.70;;;0.50;;
67554;SDS011;54385;53.516;49.456;2023-03-17T00:51:08;1.30;;;0.22;;
67554;SDS011;54385;53.516;49.456;2023-03-17T00:53:35;0.63;;;0.43;;
67554;SDS011;54385;53.516;49.456;2023-03-17T00:56:02;1.90;;;0.60;;
67554;SDS011;54385;53.516;49.456;2023-03-17T00:58:32;0.63;;;0.38;;
67554;SDS011;54385;53.516;49.456;2023-03-17T01:00:59;0.82;;;0.50;;
67554;SDS011;54385;53.516;49.456;2023-03-17T01:03:26;0.52;;;0.40;;
67554;SDS011;54385;53.516;49.456;2023-03-17T01:05:53;0.30;;;0.30;;
67554;SDS011;54385;53.516;49.456;2023-03-17T01:08:22;0.77;;;0.60;;
67554;SDS011;54385;53.516;49.456;2023-03-17T01:10:50;1.38;;;0.50;;
67554;SDS011;54385;53.516;49.456;2023-03-17T01:13:17;0.95;;;0.52;;
67554;SDS011;54385;53.516;49.456;2023-03-17T01:15:44;0.90;;;0.50;;
67554;SDS011;54385;53.516;49.456;2023-03-17T01:18:13;0.20;;;0.20;;
67554;SDS011;54385;53.516;49.456;2023-03-17T01:20:41;1.15;;;0.30;;
67554;SDS011;54385;53.516;49.456;2023-03-17T01:23:08;0.93;;;0.40;;
67554;SDS011;54385;53.516;49.456;2023-03-17T01:25:36;6.88;;;0.55;;
67554;SDS011;54385;53.516;49.456;2023-03-17T01:28:04;0.75;;;0.40;;
67554;SDS011;54385;53.516;49.456;2023-03-17T01:30:35;2.28;;;0.93;;
67554;SDS011;54385;53.516;49.456;2023-03-17T01:33:04;0.68;;;0.43;;
67554;SDS011;54385;53.516;49.456;2023-03-17T01:35:33;3.00;;;0.60;;
67554;SDS011;54385;53.516;49.456;2023-03-17T01:38:01;1.15;;;0.63;;
67554;SDS011;54385;53.516;49.456;2023-03-17T01:40:29;1.90;;;0.45;;
67554;SDS011;54385;53.516;49.456;2023-03-17T01:48:37;0.57;;;0.40;;
67554;SDS011;54385;53.516;49.456;2023-03-17T01:51:08;0.95;;;0.50;;
67554;SDS011;54385;53.516;49.456;2023-03-17T01:53:40;3.10;;;0.60;;
67554;SDS011;54385;53.516;49.456;2023-03-17T01:56:08;1.48;;;0.60;;
67554;SDS011;54385;53.516;49.456;2023-03-17T01:58:36;2.78;;;0.82;;
67554;SDS011;54385;53.516;49.456;2023-03-17T02:01:04;1.02;;;0.40;;
67554;SDS011;54385;53.516;49.456;2023-03-17T02:03:32;3.33;;;1.58;;
67554;SDS011;54385;53.516;49.456;2023-03-17T02:05:58;4.45;;;0.73;;
67554;SDS011;54385;53.516;49.456;2023-03-17T02:08:26;2.85;;;0.90;;
67554;SDS011;54385;53.516;49.456;2023-03-17T02:10:53;2.03;;;0.60;;
67554;SDS011;54385;53.516;49.456;2023-03-17T02:13:21;2.60;;;1.00;;
67554;SDS011;54385;53.516;49.456;2023-03-17T02:15:50;1.95;;;0.32;;
67554;SDS011;54385;53.516;49.456;2023-03-17T02:18:17;5.10;;;0.80;;
67554;SDS011;54385;53.516;49.456;2023-03-17T02:23:20;1.95;;;1.05;;
67554;SDS011;54385;53.516;49.456;2023-03-17T02:25:50;4.40;;;0.90;;
67554;SDS011;54385;53.516;49.456;2023-03-17T02:28:20;2.00;;;0.70;;
67554;SDS011;54385;53.516;49.456;2023-03-17T02:30:50;1.63;;;0.60;;
67554;SDS011;54385;53.516;49.456;2023-03-17T02:33:17;2.55;;;0.82;;
67554;SDS011;54385;53.516;49.456;2023-03-17T02:35:44;3.38;;;1.40;;
67554;SDS011;54385;53.516;49.456;2023-03-17T02:38:12;2.55;;;1.48;;
67554;SDS011;54385;53.516;49.456;2023-03-17T02:40:38;1.70;;;0.90;;
67554;SDS011;54385;53.516;49.456;2023-03-17T02:43:05;1.63;;;0.75;;
67554;SDS011;54385;53.516;49.456;2023-03-17T02:45:31;3.25;;;1.15;;
67554;SDS011;54385;53.516;49.456;2023-03-17T02:47:57;4.18;;;1.00;;
67554;SDS011;54385;53.516;49.456;2023-03-17T02:50:25;3.15;;;0.90;;
67554;SDS011;54385;53.516;49.456;2023-03-17T02:52:54;3.65;;;0.60;;
67554;SDS011;54385;53.516;49.456;2023-03-17T02:57:46;0.88;;;0.50;;
67554;SDS011;54385;53.516;49.456;2023-03-17T03:00:13;1.45;;;0.60;;
67554;SDS011;54385;53.516;49.456;2023-03-17T03:02:40;1.65;;;0.80;;
67554;SDS011;54385;53.516;49.456;2023-03-17T03:05:06;4.18;;;0.98;;
67554;SDS011;54385;53.516;49.456;2023-03-17T03:07:34;3.05;;;1.40;;
67554;SDS011;54385;53.516;49.456;2023-03-17T03:10:01;1.45;;;0.82;;
67554;SDS011;54385;53.516;49.456;2023-03-17T03:12:27;1.27;;;0.63;;
67554;SDS011;54385;53.516;49.456;2023-03-17T03:14:53;1.20;;;0.65;;
67554;SDS011;54385;53.516;49.456;2023-03-17T03:17:20;3.85;;;1.00;;
67554;SDS011;54385;53.516;49.456;2023-03-17T03:19:46;2.88;;;0.85;;
67554;SDS011;54385;53.516;49.456;2023-03-17T03:22:14;2.67;;;0.60;;
67554;SDS011;54385;53.516;49.456;2023-03-17T03:27:07;2.83;;;0.68;;
67554;SDS011;54385;53.516;49.456;2023-03-17T03:29:33;1.45;;;0.80;;
67554;SDS011;54385;53.516;49.456;2023-03-17T03:32:00;0.63;;;0.43;;
67554;SDS011;54385;53.516;49.456;2023-03-17T03:34:26;1.15;;;0.60;;
67554;SDS011;54385;53.516;49.456;2023-03-17T03:36:53;1.10;;;0.68;;
67554;SDS011;54385;53.516;49.456;2023-03-17T03:39:20;1.77;;;0.60;;
67554;SDS011;54385;53.516;49.456;2023-03-17T03:41:47;3.00;;;0.50;;
67554;SDS011;54385;53.516;49.456;2023-03-17T03:44:14;3.92;;;1.02;;
67554;SDS011;54385;53.516;49.456;2023-03-17T03:49:07;2.53;;;0.60;;
67554;SDS011;54385;53.516;49.456;2023-03-17T03:51:33;2.42;;;0.90;;
67554;SDS011;54385;53.516;49.456;2023-03-17T03:54:00;1.10;;;0.60;;
67554;SDS011;54385;53.516;49.456;2023-03-17T03:56:26;1.38;;;0.60;;
67554;SDS011;54385;53.516;49.456;2023-03-17T03:58:56;2.55;;;0.55;;
67554;SDS011;54385;53.516;49.456;2023-03-17T04:03:54;7.10;;;1.73;;
67554;SDS011;54385;53.516;49.456;2023-03-17T04:06:22;12.93;;;5.93;;
67554;SDS011;54385;53.516;49.456;2023-03-17T04:08:48;1.38;;;0.77;;
67554;SDS011;54385;53.516;49.456;2023-03-17T04:11:15;2.30;;;0.60;;
67554;SDS011;54385;53.516;49.456;2023-03-17T04:13:53;2.70;;;0.50;;
67554;SDS011;54385;53.516;49.456;2023-03-17T04:16:20;6.63;;;0.82;;
67554;SDS011;54385;53.516;49.456;2023-03-17T04:18:46;3.25;;;0.60;;
67554;SDS011;54385;53.516;49.456;2023-03-17T04:21:12;6.60;;;1.00;;
67554;SDS011;54385;53.516;49.456;2023-03-17T04:23:43;2.05;;;0.40;;
67554;SDS011;54385;53.516;49.456;2023-03-17T04:26:10;2.45;;;0.75;;
67554;SDS011;54385;53.516;49.456;2023-03-17T04:28:39;3.17;;;1.35;;
67554;SDS011;54385;53.516;49.456;2023-03-17T04:31:07;1.58;;;0.70;;
67554;SDS011;54385;53.516;49.456;2023-03-17T04:33:36;3.47;;;0.70;;
67554;SDS011;54385;53.516;49.456;2023-03-17T04:36:03;3.58;;;0.57;;
67554;SDS011;54385;53.516;49.456;2023-03-17T04:38:31;1.42;;;0.65;;
67554;SDS011;54385;53.516;49.456;2023-03-17T04:40:57;2.20;;;0.77;;
67554;SDS011;54385;53.516;49.456;2023-03-17T04:43:24;3.25;;;0.88;;
67554;SDS011;54385;53.516;49.456;2023-03-17T04:45:51;3.35;;;0.55;;
67554;SDS011;54385;53.516;49.456;2023-03-17T04:50:44;4.38;;;0.77;;
67554;SDS011;54385;53.516;49.456;2023-03-17T04:53:12;4.88;;;0.80;;
67554;SDS011;54385;53.516;49.456;2023-03-17T04:55:44;1.75;;;0.85;;
67554;SDS011;54385;53.516;49.456;2023-03-17T04:58:11;2.58;;;1.13;;
67554;SDS011;54385;53.516;49.456;2023-03-17T05:00:38;6.88;;;1.33;;
67554;SDS011;54385;53.516;49.456;2023-03-17T05:03:04;7.53;;;0.73;;
67554;SDS011;54385;53.516;49.456;2023-03-17T05:07:57;3.58;;;1.48;;
67554;SDS011;54385;53.516;49.456;2023-03-17T05:10:24;8.85;;;1.00;;
67554;SDS011;54385;53.516;49.456;2023-03-17T05:12:52;9.60;;;1.35;;
67554;SDS011;54385;53.516;49.456;2023-03-17T05:15:19;3.72;;;1.50;;
67554;SDS011;54385;53.516;49.456;2023-03-17T05:17:48;7.32;;;1.73;;
67554;SDS011;54385;53.516;49.456;2023-03-17T05:20:15;5.82;;;0.80;;
67554;SDS011;54385;53.516;49.456;2023-03-17T05:22:41;2.65;;;0.65;;
67554;SDS011;54385;53.516;49.456;2023-03-17T05:25:08;5.43;;;1.10;;
67554;SDS011;54385;53.516;49.456;2023-03-17T05:27:35;7.90;;;1.67;;
67554;SDS011;54385;53.516;49.456;2023-03-17T05:30:02;10.82;;;1.88;;
67554;SDS011;54385;53.516;49.456;2023-03-17T05:32:29;10.65;;;1.73;;
67554;SDS011;54385;53.516;49.456;2023-03-17T05:34:56;6.75;;;1.20;;
67554;SDS011;54385;53.516;49.456;2023-03-17T05:39:50;4.93;;;1.30;;
67554;SDS011;54385;53.516;49.456;2023-03-17T05:42:18;13.88;;;2.10;;
67554;SDS011;54385;53.516;49.456;2023-03-17T05:44:44;6.53;;;1.00;;
67554;SDS011;54385;53.516;49.456;2023-03-17T05:49:37;11.45;;;3.63;;
67554;SDS011;54385;53.516;49.456;2023-03-17T05:52:04;5.93;;;1.50;;
67554;SDS011;54385;53.516;49.456;2023-03-17T05:56:56;19.48;;;1.98;;
67554;SDS011;54385;53.516;49.456;2023-03-17T05:59:23;18.27;;;1.77;;
67554;SDS011;54385;53.516;49.456;2023-03-17T06:01:49;7.45;;;1.08;;
67554;SDS011;54385;53.516;49.456;2023-03-17T06:04:16;22.15;;;1.70;;
67554;SDS011;54385;53.516;49.456;2023-03-17T06:06:43;21.10;;;3.28;;
67554;SDS011;54385;53.516;49.456;2023-03-17T06:09:09;17.00;;;2.13;;
67554;SDS011;54385;53.516;49.456;2023-03-17T06:11:36;25.42;;;3.78;;
67554;SDS011;54385;53.516;49.456;2023-03-17T06:14:02;15.68;;;3.03;;
67554;SDS011;54385;53.516;49.456;2023-03-17T06:18:57;17.45;;;2.08;;
67554;SDS011;54385;53.516;49.456;2023-03-17T06:21:24;18.45;;;2.65;;
67554;SDS011;54385;53.516;49.456;2023-03-17T06:23:50;19.05;;;2.08;;
67554;SDS011;54385;53.516;49.456;2023-03-17T06:26:17;21.38;;;1.85;;
67554;SDS011;54385;53.516;49.456;2023-03-17T06:28:43;15.43;;;1.98;;
67554;SDS011;54385;53.516;49.456;2023-03-17T06:31:10;15.82;;;1.90;;
67554;SDS011;54385;53.516;49.456;2023-03-17T06:33:36;31.30;;;2.42;;
67554;SDS011;54385;53.516;49.456;2023-03-17T06:36:06;9.18;;;1.50;;
67554;SDS011;54385;53.516;49.456;2023-03-17T06:38:33;34.97;;;2.72;;
67554;SDS011;54385;53.516;49.456;2023-03-17T06:41:00;18.13;;;2.47;;
67554;SDS011;54385;53.516;49.456;2023-03-17T06:45:53;25.83;;;2.28;;
67554;SDS011;54385;53.516;49.456;2023-03-17T06:48:20;14.52;;;2.00;;
67554;SDS011;54385;53.516;49.456;2023-03-17T06:50:48;19.83;;;2.25;;
67554;SDS011;54385;53.516;49.456;2023-03-17T06:53:15;31.98;;;2.45;;
67554;SDS011;54385;53.516;49.456;2023-03-17T06:55:42;28.25;;;2.92;;
67554;SDS011;54385;53.516;49.456;2023-03-17T06:58:08;24.15;;;3.97;;
67554;SDS011;54385;53.516;49.456;2023-03-17T07:00:35;18.88;;;2.33;;
67554;SDS011;54385;53.516;49.456;2023-03-17T07:03:04;13.82;;;2.50;;
67554;SDS011;54385;53.516;49.456;2023-03-17T07:05:31;32.03;;;2.63;;
67554;SDS011;54385;53.516;49.456;2023-03-17T07:10:24;17.60;;;3.13;;
67554;SDS011;54385;53.516;49.456;2023-03-17T07:12:50;20.45;;;2.45;;
67554;SDS011;54385;53.516;49.456;2023-03-17T07:15:17;36.15;;;4.63;;
67554;SDS011;54385;53.516;49.456;2023-03-17T07:17:45;25.10;;;3.22;;
67554;SDS011;54385;53.516;49.456;2023-03-17T07:20:12;22.40;;;2.35;;
67554;SDS011;54385;53.516;49.456;2023-03-17T07:22:41;25.77;;;2.80;;
67554;SDS011;54385;53.516;49.456;2023-03-17T07:25:09;25.35;;;2.63;;
67554;SDS011;54385;53.516;49.456;2023-03-17T07:27:35;25.27;;;3.33;;
67554;SDS011;54385;53.516;49.456;2023-03-17T07:30:02;24.50;;;4.28;;
67554;SDS011;54385;53.516;49.456;2023-03-17T07:32:30;17.00;;;2.45;;
67554;SDS011;54385;53.516;49.456;2023-03-17T07:34:56;15.52;;;1.65;;
67554;SDS011;54385;53.516;49.456;2023-03-17T07:37:23;26.23;;;2.65;;
67554;SDS011;54385;53.516;49.456;2023-03-17T07:39:49;37.00;;;4.00;;
67554;SDS011;54385;53.516;49.456;2023-03-17T07:42:16;18.73;;;2.40;;
67554;SDS011;54385;53.516;49.456;2023-03-17T07:44:43;23.73;;;3.42;;
67554;SDS011;54385;53.516;49.456;2023-03-17T07:47:12;31.05;;;3.20;;
67554;SDS011;54385;53.516;49.456;2023-03-17T07:49:39;23.83;;;2.35;;
67554;SDS011;54385;53.516;49.456;2023-03-17T07:52:07;24.58;;;3.00;;
67554;SDS011;54385;53.516;49.456;2023-03-17T07:54:35;28.90;;;5.10;;
67554;SDS011;54385;53.516;49.456;2023-03-17T07:57:02;31.67;;;3.05;;
67554;SDS011;54385;53.516;49.456;2023-03-17T07:59:30;17.52;;;2.40;;
67554;SDS011;54385;53.516;49.456;2023-03-17T08:01:57;27.23;;;2.10;;
67554;SDS011;54385;53.516;49.456;2023-03-17T08:04:28;27.33;;;3.67;;
67554;SDS011;54385;53.516;49.456;2023-03-17T08:06:56;31.80;;;3.30;;
67554;SDS011;54385;53.516;49.456;2023-03-17T08:09:22;28.33;;;3.28;;
67554;SDS011;54385;53.516;49.456;2023-03-17T08:11:48;37.40;;;3.28;;
67554;SDS011;54385;53.516;49.456;2023-03-17T08:14:15;23.02;;;3.17;;
67554;SDS011;54385;53.516;49.456;2023-03-17T08:16:45;21.73;;;2.33;;
67554;SDS011;54385;53.516;49.456;2023-03-17T08:19:12;19.80;;;3.10;;
67554;SDS011;54385;53.516;49.456;2023-03-17T08:21:38;25.60;;;3.15;;
67554;SDS011;54385;53.516;49.456;2023-03-17T08:26:31;22.10;;;4.47;;
67554;SDS011;54385;53.516;49.456;2023-03-17T08:28:58;26.27;;;2.65;;
67554;SDS011;54385;53.516;49.456;2023-03-17T08:31:25;32.90;;;3.45;;
67554;SDS011;54385;53.516;49.456;2023-03-17T08:33:53;35.25;;;3.60;;
67554;SDS011;54385;53.516;49.456;2023-03-17T08:36:24;26.73;;;3.83;;
67554;SDS011;54385;53.516;49.456;2023-03-17T08:39:03;40.05;;;3.25;;
67554;SDS011;54385;53.516;49.456;2023-03-17T08:41:30;40.33;;;4.25;;
67554;SDS011;54385;53.516;49.456;2023-03-17T08:43:58;25.45;;;4.07;;
67554;SDS011;54385;53.516;49.456;2023-03-17T08:46:29;24.20;;;3.47;;
67554;SDS011;54385;53.516;49.456;2023-03-17T08:48:57;23.17;;;2.95;;
67554;SDS011;54385;53.516;49.456;2023-03-17T08:51:25;50.50;;;5.20;;
67554;SDS011;54385;53.516;49.456;2023-03-17T08:53:54;33.63;;;3.20;;
67554;SDS011;54385;53.516;49.456;2023-03-17T08:56:21;26.23;;;3.72;;
67554;SDS011;54385;53.516;49.456;2023-03-17T08:58:47;25.73;;;2.80;;
67554;SDS011;54385;53.516;49.456;2023-03-17T09:01:15;38.15;;;3.90;;
67554;SDS011;54385;53.516;49.456;2023-03-17T09:03:42;33.25;;;4.05;;
67554;SDS011;54385;53.516;49.456;2023-03-17T09:06:10;22.52;;;3.60;;
67554;SDS011;54385;53.516;49.456;2023-03-17T09:08:37;27.85;;;4.47;;
67554;SDS011;54385;53.516;49.456;2023-03-17T09:11:06;29.05;;;3.33;;
67554;SDS011;54385;53.516;49.456;2023-03-17T09:13:35;29.95;;;3.78;;
67554;SDS011;54385;53.516;49.456;2023-03-17T09:16:04;33.53;;;4.43;;
67554;SDS011;54385;53.516;49.456;2023-03-17T09:18:32;21.67;;;3.95;;
67554;SDS011;54385;53.516;49.456;2023-03-17T09:20:59;39.97;;;3.83;;
67554;SDS011;54385;53.516;49.456;2023-03-17T09:23:27;26.63;;;3.05;;
67554;SDS011;54385;53.516;49.456;2023-03-17T09:25:53;28.73;;;3.33;;
67554;SDS011;54385;53.516;49.456;2023-03-17T09:28:23;31.88;;;3.63;;
67554;SDS011;54385;53.516;49.456;2023-03-17T09:30:49;27.98;;;3.97;;
67554;SDS011;54385;53.516;49.456;2023-03-17T09:33:17;36.33;;;4.55;;
67554;SDS011;54385;53.516;49.456;2023-03-17T09:35:43;30.38;;;3.28;;
67554;SDS011;54385;53.516;49.456;2023-03-17T09:38:10;28.58;;;4.10;;
67554;SDS011;54385;53.516;49.456;2023-03-17T09:43:38;29.30;;;3.42;;
67554;SDS011;54385;53.516;49.456;2023-03-17T09:49:05;28.75;;;2.65;;
67554;SDS011;54385;53.516;49.456;2023-03-17T09:51:34;28.48;;;2.95;;
67554;SDS011;54385;53.516;49.456;2023-03-17T09:54:02;27.67;;;4.28;;
67554;SDS011;54385;53.516;49.456;2023-03-17T09:59:51;25.90;;;3.92;;
67554;SDS011;54385;53.516;49.456;2023-03-17T10:02:30;27.48;;;2.97;;
67554;SDS011;54385;53.516;49.456;2023-03-17T10:05:20;29.83;;;3.78;;
67554;SDS011;54385;53.516;49.456;2023-03-17T10:07:58;29.73;;;3.53;;
67554;SDS011;54385;53.516;49.456;2023-03-17T10:10:50;23.65;;;3.13;;
67554;SDS011;54385;53.516;49.456;2023-03-17T10:19:18;27.88;;;4.10;;
67554;SDS011;54385;53.516;49.456;2023-03-17T10:21:54;34.78;;;4.72;;
67554;SDS011;54385;53.516;49.456;2023-03-17T10:24:25;33.60;;;3.30;;
67554;SDS011;54385;53.516;49.456;2023-03-17T10:26:54;33.33;;;3.53;;
67554;SDS011;54385;53.516;49.456;2023-03-17T10:29:24;55.30;;;5.28;;
67554;SDS011;54385;53.516;49.456;2023-03-17T10:31:51;35.30;;;5.05;;
67554;SDS011;54385;53.516;49.456;2023-03-17T10:34:37;33.88;;;4.43;;
67554;SDS011;54385;53.516;49.456;2023-03-17T10:37:07;33.45;;;4.05;;
67554;SDS011;54385;53.516;49.456;2023-03-17T10:39:52;34.70;;;3.63;;
67554;SDS011;54385;53.516;49.456;2023-03-17T10:42:27;29.27;;;4.53;;
67554;SDS011;54385;53.516;49.456;2023-03-17T10:45:15;34.45;;;4.70;;
67554;SDS011;54385;53.516;49.456;2023-03-17T10:48:08;33.35;;;3.55;;
67554;SDS011;54385;53.516;49.456;2023-03-17T10:50:36;27.27;;;3.92;;
67554;SDS011;54385;53.516;49.456;2023-03-17T10:53:07;35.47;;;4.22;;
67554;SDS011;54385;53.516;49.456;2023-03-17T10:55:48;42.15;;;5.82;;
67554;SDS011;54385;53.516;49.456;2023-03-17T10:58:20;36.92;;;5.13;;
67554;SDS011;54385;53.516;49.456;2023-03-17T11:01:15;34.13;;;3.70;;
67554;SDS011;54385;53.516;49.456;2023-03-17T11:03:46;31.73;;;4.88;;
67554;SDS011;54385;53.516;49.456;2023-03-17T11:06:14;48.25;;;4.88;;
67554;SDS011;54385;53.516;49.456;2023-03-17T11:08:47;34.83;;;4.63;;
67554;SDS011;54385;53.516;49.456;2023-03-17T11:11:29;31.23;;;3.70;;
67554;SDS011;54385;53.516;49.456;2023-03-17T11:14:03;39.33;;;5.07;;
67554;SDS011;54385;53.516;49.456;2023-03-17T11:16:50;21.13;;;3.67;;
67554;SDS011;54385;53.516;49.456;2023-03-17T11:19:18;27.15;;;4.30;;
67554;SDS011;54385;53.516;49.456;2023-03-17T11:24:33;27.35;;;3.70;;
67554;SDS011;54385;53.516;49.456;2023-03-17T11:35:13;26.80;;;3.92;;
67554;SDS011;54385;53.516;49.456;2023-03-17T11:46:15;25.02;;;3.97;;
67554;SDS011;54385;53.516;49.456;2023-03-17T11:48:59;32.65;;;3.78;;
67554;SDS011;54385;53.516;49.456;2023-03-17T11:57:22;29.13;;;4.05;;
67554;SDS011;54385;53.516;49.456;2023-03-17T12:00:02;27.13;;;4.32;;
67554;SDS011;54385;53.516;49.456;2023-03-17T12:05:07;23.90;;;3.22;;
67554;SDS011;54385;53.516;49.456;2023-03-17T12:07:39;25.33;;;3.47;;
67554;SDS011;54385;53.516;49.456;2023-03-17T12:12:46;25.20;;;3.17;;
67554;SDS011;54385;53.516;49.456;2023-03-17T12:15:27;31.73;;;3.88;;
67554;SDS011;54385;53.516;49.456;2023-03-17T12:18:03;30.60;;;3.75;;
67554;SDS011;54385;53.516;49.456;2023-03-17T12:23:40;28.33;;;4.47;;
67554;SDS011;54385;53.516;49.456;2023-03-17T12:26:13;23.98;;;3.53;;
67554;SDS011;54385;53.516;49.456;2023-03-17T12:31:27;31.55;;;3.90;;
67554;SDS011;54385;53.516;49.456;2023-03-17T12:34:02;22.13;;;4.40;;
67554;SDS011;54385;53.516;49.456;2023-03-17T12:36:53;33.38;;;4.45;;
67554;SDS011;54385;53.516;49.456;2023-03-17T12:39:22;26.02;;;3.75;;
67554;SDS011;54385;53.516;49.456;2023-03-17T12:53:18;16.17;;;2.15;;
67554;SDS011;54385;53.516;49.456;2023-03-17T12:55:28;10.38;;;2.10;;
67554;SDS011;54385;53.516;49.456;2023-03-17T12:58:01;22.77;;;2.95;;
67554;SDS011;54385;53.516;49.456;2023-03-17T13:01:28;18.10;;;1.80;;
67554;SDS011;54385;53.516;49.456;2023-03-17T13:03:55;15.45;;;2.30;;
67554;SDS011;54385;53.516;49.456;2023-03-17T13:06:22;14.15;;;2.72;;
67554;SDS011;54385;53.516;49.456;2023-03-17T13:08:50;7.90;;;1.60;;
67554;SDS011;54385;53.516;49.456;2023-03-17T13:11:27;16.02;;;2.55;;
67554;SDS011;54385;53.516;49.456;2023-03-17T13:17:01;14.15;;;2.22;;
67554;SDS011;54385;53.516;49.456;2023-03-17T13:19:31;16.10;;;2.63;;
67554;SDS011;54385;53.516;49.456;2023-03-17T13:24:44;12.10;;;1.90;;
67554;SDS011;54385;53.516;49.456;2023-03-17T13:35:24;12.18;;;1.95;;
67554;SDS011;54385;53.516;49.456;2023-03-17T13:46:38;8.13;;;1.52;;
67554;SDS011;54385;53.516;49.456;2023-03-17T13:56:53;9.60;;;1.50;;
67554;SDS011;54385;53.516;49.456;2023-03-17T14:02:18;5.85;;;1.55;;
67554;SDS011;54385;53.516;49.456;2023-03-17T14:05:03;6.80;;;1.13;;
67554;SDS011;54385;53.516;49.456;2023-03-17T14:07:38;10.70;;;1.50;;
67554;SDS011;54385;53.516;49.456;2023-03-17T14:10:25;4.68;;;1.33;;
67554;SDS011;54385;53.516;49.456;2023-03-17T14:12:57;13.43;;;1.58;;
67554;SDS011;54385;53.516;49.456;2023-03-17T14:15:49;10.50;;;2.15;;
67554;SDS011;54385;53.516;49.456;2023-03-17T14:18:34;10.07;;;1.80;;
67554;SDS011;54385;53.516;49.456;2023-03-17T14:21:20;11.73;;;2.38;;
67554;SDS011;54385;53.516;49.456;2023-03-17T14:23:59;8.70;;;1.55;;
67554;SDS011;54385;53.516;49.456;2023-03-17T14:26:27;4.60;;;1.33;;
67554;SDS011;54385;53.516;49.456;2023-03-17T14:28:59;12.07;;;1.67;;
67554;SDS011;54385;53.516;49.456;2023-03-17T14:31:27;6.22;;;1.70;;
67554;SDS011;54385;53.516;49.456;2023-03-17T14:33:55;3.45;;;1.02;;
67554;SDS011;54385;53.516;49.456;2023-03-17T14:36:23;5.10;;;1.23;;
67554;SDS011;54385;53.516;49.456;2023-03-17T14:38:52;6.25;;;1.17;;
67554;SDS011;54385;53.516;49.456;2023-03-17T14:41:21;10.38;;;1.25;;
67554;SDS011;54385;53.516;49.456;2023-03-17T14:43:50;13.23;;;3.63;;
67554;SDS011;54385;53.516;49.456;2023-03-17T14:46:22;8.75;;;1.50;;
67554;SDS011;54385;53.516;49.456;2023-03-17T14:48:50;6.00;;;1.30;;
67554;SDS011;54385;53.516;49.456;2023-03-17T14:51:25;9.52;;;1.30;;
67554;SDS011;54385;53.516;49.456;2023-03-17T14:53:57;8.20;;;1.92;;
67554;SDS011;54385;53.516;49.456;2023-03-17T14:56:28;9.05;;;2.60;;
67554;SDS011;54385;53.516;49.456;2023-03-17T14:59:07;8.32;;;2.15;;
67554;SDS011;54385;53.516;49.456;2023-03-17T15:01:58;19.85;;;6.45;;
67554;SDS011;54385;53.516;49.456;2023-03-17T15:04:31;15.63;;;6.50;;
67554;SDS011;54385;53.516;49.456;2023-03-17T15:07:02;12.73;;;8.48;;
67554;SDS011;54385;53.516;49.456;2023-03-17T15:12:17;9.00;;;5.63;;
67554;SDS011;54385;53.516;49.456;2023-03-17T15:14:51;10.45;;;3.42;;
67554;SDS011;54385;53.516;49.456;2023-03-17T15:17:40;11.60;;;3.25;;
67554;SDS011;54385;53.516;49.456;2023-03-17T15:20:13;10.05;;;3.35;;
67554;SDS011;54385;53.516;49.456;2023-03-17T15:22:43;13.55;;;3.17;;
67554;SDS011;54385;53.516;49.456;2023-03-17T15:25:23;9.77;;;2.28;;
67554;SDS011;54385;53.516;49.456;2023-03-17T15:28:12;8.77;;;1.67;;
67554;SDS011;54385;53.516;49.456;2023-03-17T15:30:41;8.85;;;1.83;;
67554;SDS011;54385;53.516;49.456;2023-03-17T15:33:52;10.18;;;2.83;;
67554;SDS011;54385;53.516;49.456;2023-03-17T15:36:03;10.05;;;2.40;;
67554;SDS011;54385;53.516;49.456;2023-03-17T15:38:30;7.78;;;1.92;;
67554;SDS011;54385;53.516;49.456;2023-03-17T15:40:58;6.45;;;2.53;;
67554;SDS011;54385;53.516;49.456;2023-03-17T15:45:56;10.10;;;2.88;;
67554;SDS011;54385;53.516;49.456;2023-03-17T15:48:26;10.20;;;1.90;;
67554;SDS011;54385;53.516;49.456;2023-03-17T15:50:57;6.45;;;1.70;;
67554;SDS011;54385;53.516;49.456;2023-03-17T15:53:25;2.78;;;1.23;;
67554;SDS011;54385;53.516;49.456;2023-03-17T15:55:52;5.20;;;1.33;;
67554;SDS011;54385;53.516;49.456;2023-03-17T15:58:18;5.78;;;2.50;;
67554;SDS011;54385;53.516;49.456;2023-03-17T16:00:46;5.13;;;1.20;;
67554;SDS011;54385;53.516;49.456;2023-03-17T16:03:25;5.45;;;1.10;;
67554;SDS011;54385;53.516;49.456;2023-03-17T16:05:54;3.63;;;1.45;;
67554;SDS011;54385;53.516;49.456;2023-03-17T16:10:47;4.30;;;1.63;;
67554;SDS011;54385;53.516;49.456;2023-03-17T16:13:16;4.85;;;2.00;;
67554;SDS011;54385;53.516;49.456;2023-03-17T16:15:45;3.85;;;1.90;;
67554;SDS011;54385;53.516;49.456;2023-03-17T16:18:17;5.13;;;2.10;;
67554;SDS011;54385;53.516;49.456;2023-03-17T16:20:50;9.02;;;2.60;;
67554;SDS011;54385;53.516;49.456;2023-03-17T16:23:19;4.68;;;2.00;;
67554;SDS011;54385;53.516;49.456;2023-03-17T16:25:48;5.88;;;2.30;;
67554;SDS011;54385;53.516;49.456;2023-03-17T16:28:16;5.22;;;2.03;;
67554;SDS011;54385;53.516;49.456;2023-03-17T16:30:49;6.47;;;2.95;;
67554;SDS011;54385;53.516;49.456;2023-03-17T16:33:18;2.55;;;1.73;;
67554;SDS011;54385;53.516;49.456;2023-03-17T16:36:04;2.80;;;1.42;;
67554;SDS011;54385;53.516;49.456;2023-03-17T16:38:32;6.45;;;1.50;;
67554;SDS011;54385;53.516;49.456;2023-03-17T16:40:59;3.85;;;1.35;;
67554;SDS011;54385;53.516;49.456;2023-03-17T16:43:32;3.55;;;1.27;;
67554;SDS011;54385;53.516;49.456;2023-03-17T16:46:03;2.25;;;0.93;;
67554;SDS011;54385;53.516;49.456;2023-03-17T16:48:31;1.20;;;1.10;;
67554;SDS011;54385;53.516;49.456;2023-03-17T16:50:58;5.65;;;1.38;;
67554;SDS011;54385;53.516;49.456;2023-03-17T16:53:25;2.40;;;1.70;;
67554;SDS011;54385;53.516;49.456;2023-03-17T16:58:22;7.40;;;1.30;;
67554;SDS011;54385;53.516;49.456;2023-03-17T17:00:51;5.82;;;1.30;;
67554;SDS011;54385;53.516;49.456;2023-03-17T17:03:21;4.85;;;1.80;;
67554;SDS011;54385;53.516;49.456;2023-03-17T17:05:48;5.20;;;1.20;;
67554;SDS011;54385;53.516;49.456;2023-03-17T17:08:14;3.13;;;1.85;;
67554;SDS011;54385;53.516;49.456;2023-03-17T17:10:41;8.70;;;2.63;;